Time;durP1;ratioP1;P1;durP2;ratioP2;P2;SDS_P1;SDS_P2;PMS_P1;PMS_P2;Temp;Humidity;BMP_temperature;BMP_pressure;BME280_temperature;BME280_humidity;BME280_pressure;Samples;Min_cycle;Max_cycle;Signal;HPM_P1;HPM_P2
2021/07/29 00:00:34;;;;;;;3.80;3.50;;;;;;;22.20;62.06;100391.16;5011860;28;20025;-45
2021/07/29 00:02:59;;;;;;;3.40;3.10;;;;;;;22.18;62.20;100393.94;5011758;28;20025;-45
2021/07/29 00:05:36;;;;;;;3.28;2.88;;;;;;;22.19;62.31;100389.44;5011024;28;20028;-44
2021/07/29 00:08:01;;;;;;;3.05;2.85;;;;;;;22.17;62.10;100392.22;4993370;28;20060;-45
2021/07/29 00:10:27;;;;;;;3.70;3.25;;;;;;;22.17;62.26;100383.28;5010659;28;20127;-45
2021/07/29 00:12:52;;;;;;;3.38;3.08;;;;;;;22.16;62.09;100385.13;5011114;28;20514;-44
2021/07/29 00:15:18;;;;;;;4.03;3.30;;;;;;;22.14;62.37;100387.03;5009345;28;20053;-45
2021/07/29 00:20:12;;;;;;;3.92;3.53;;;;;;;22.15;62.12;100380.69;5010638;28;20041;-44
2021/07/29 00:22:37;;;;;;;3.45;3.15;;;;;;;22.13;62.29;100377.25;5010069;28;20038;-43
2021/07/29 00:25:06;;;;;;;3.40;3.13;;;;;;;22.14;62.22;100370.06;5010431;28;20381;-43
2021/07/29 00:27:34;;;;;;;3.58;3.28;;;;;;;22.12;62.31;100367.47;5008829;28;20506;-43
2021/07/29 00:29:59;;;;;;;3.40;3.10;;;;;;;22.12;62.16;100375.53;5012632;28;20035;-43
2021/07/29 00:32:24;;;;;;;4.20;3.42;;;;;;;;;;5010480;28;20013;-43
2021/07/29 00:34:50;;;;;;;3.45;3.15;;;;;;;22.11;62.34;100368.41;5011110;28;20120;-43
2021/07/29 00:37:15;;;;;;;3.60;3.30;;;;;;;22.10;62.31;100364.00;5010098;28;20049;-43
2021/07/29 00:39:40;;;;;;;3.35;3.10;;;;;;;22.09;62.17;100364.97;5009534;28;20025;-43
2021/07/29 00:42:05;;;;;;;3.55;3.25;;;;;;;22.09;62.33;100361.41;5008143;28;20092;-43
2021/07/29 00:44:34;;;;;;;3.65;3.35;;;;;;;22.07;62.25;100353.47;5010828;28;20088;-43
2021/07/29 00:47:00;;;;;;;2.85;2.65;;;;;;;22.07;62.32;100353.47;5010361;28;20936;-43
2021/07/29 00:49:25;;;;;;;3.28;2.97;;;;;;;22.07;62.43;100349.94;4996985;28;20022;-43
2021/07/29 00:51:51;;;;;;;3.28;2.97;;;;;;;22.05;62.32;100350.03;5009214;28;20474;-43
2021/07/29 00:54:16;;;;;;;2.75;2.55;;;;;;;22.03;62.38;100341.19;5011367;28;20429;-43
2021/07/29 00:56:44;;;;;;;3.47;3.17;;;;;;;22.05;62.28;100344.66;5009105;28;20028;-43
2021/07/29 00:59:09;;;;;;;3.17;2.92;;;;;;;22.05;62.45;100344.66;5011414;28;20076;-44
2021/07/29 01:01:35;;;;;;;3.40;3.10;;;;;;;22.04;62.35;100340.25;5010730;28;20026;-43
2021/07/29 01:04:00;;;;;;;3.17;2.88;;;;;;;22.04;62.51;100348.31;4997889;28;20026;-43
2021/07/29 01:06:25;;;;;;;3.35;3.10;;;;;;;22.04;62.53;100345.63;5013141;28;20018;-43
2021/07/29 01:09:08;;;;;;;3.22;2.95;;;;;;;22.03;62.51;100346.56;4993539;28;20044;-42
2021/07/29 01:11:33;;;;;;;3.47;3.17;;;;;;;22.03;62.39;100341.19;5011131;28;20121;-43
2021/07/29 01:13:58;;;;;;;3.20;2.90;;;;;;;22.03;62.26;100346.56;5009186;28;20539;-43
2021/07/29 01:16:24;;;;;;;3.25;3.00;;;;;;;22.02;62.27;100336.78;5010058;28;20080;-43
2021/07/29 01:18:49;;;;;;;4.32;2.85;;;;;;;22.01;62.50;100337.75;5010884;28;20025;-43
2021/07/29 01:21:14;;;;;;;3.53;3.22;;;;;;;22.00;62.35;100333.31;5013186;28;20492;-43
2021/07/29 01:23:39;;;;;;;3.30;3.00;;;;;;;22.00;62.39;100331.50;5011315;28;20022;-42
2021/07/29 01:26:05;;;;;;;3.47;3.17;;;;;;;22.01;62.32;100329.69;5011380;28;20025;-43
2021/07/29 01:28:30;;;;;;;3.10;2.90;;;;;;;22.01;62.42;100324.34;5016139;28;20124;-43
2021/07/29 01:30:55;;;;;;;3.22;3.00;;;;;;;22.00;62.29;100333.31;5015975;28;20049;-43
2021/07/29 01:33:21;;;;;;;4.10;3.70;;;;;;;22.00;62.28;100336.00;5013478;28;20562;-43
2021/07/29 01:35:46;;;;;;;4.05;3.65;;;;;;;22.01;62.36;100343.13;5013701;28;20033;-43
2021/07/29 01:38:12;;;;;;;3.10;2.90;;;;;;;21.99;62.46;100334.28;5014057;28;20049;-43
2021/07/29 01:40:37;;;;;;;3.38;3.08;;;;;;;22.00;62.42;100330.63;5011317;28;20109;-43
2021/07/29 01:43:02;;;;;;;3.58;3.28;;;;;;;21.99;62.29;100323.56;4996293;28;20053;-43
2021/07/29 01:45:28;;;;;;;4.55;4.15;;;;;;;21.99;62.40;100326.25;5017154;28;20472;-43
2021/07/29 01:47:53;;;;;;;3.50;3.20;;;;;;;21.99;62.31;100334.28;5013333;28;20495;-43
2021/07/29 01:50:18;;;;;;;3.47;3.17;;;;;;;21.98;62.47;100329.88;5013810;28;20026;-43
2021/07/29 01:52:43;;;;;;;3.45;3.15;;;;;;;21.97;62.08;100333.53;5014195;28;20076;-43
2021/07/29 01:55:09;;;;;;;3.63;3.30;;;;;;;21.97;62.49;100329.00;4996967;28;20049;-43
2021/07/29 01:57:36;;;;;;;3.92;3.63;;;;;;;21.95;62.64;100322.03;5013650;28;20053;-43
2021/07/29 02:00:02;;;;;;;4.43;2.90;;;;;;;21.95;62.16;100324.72;5010980;28;20034;-43
2021/07/29 02:02:27;;;;;;;4.95;3.03;;;;;;;21.94;62.11;100325.69;5012101;28;20448;-43
2021/07/29 02:04:52;;;;;;;4.13;3.72;;;;;;;21.94;62.61;100323.00;4994693;28;20030;-43
2021/07/29 02:07:18;;;;;;;3.35;3.05;;;;;;;21.92;62.33;100323.97;5012752;28;20105;-42
2021/07/29 02:09:43;;;;;;;3.78;3.30;;;;;;;21.94;62.07;100325.69;4995871;28;20022;-43
2021/07/29 02:12:08;;;;;;;4.10;3.70;;;;;;;21.95;62.26;100327.41;4997375;28;20435;-43
2021/07/29 02:14:34;;;;;;;3.90;3.60;;;;;;;21.94;62.27;100325.69;5013403;28;20052;-43
2021/07/29 02:16:59;;;;;;;3.60;3.30;;;;;;;21.93;62.04;100332.84;5015129;28;20056;-43
2021/07/29 02:19:24;;;;;;;3.33;3.03;;;;;;;21.93;61.97;100327.47;5013361;28;20060;-43
2021/07/29 02:21:51;;;;;;;2.78;2.58;;;;;;;21.91;62.10;100332.94;5013794;28;20106;-43
2021/07/29 02:24:16;;;;;;;3.38;3.10;;;;;;;21.91;62.14;100330.25;5013246;28;20053;-43
2021/07/29 02:26:42;;;;;;;3.42;3.13;;;;;;;21.92;62.30;100333.81;5015865;28;20480;-43
2021/07/29 02:29:07;;;;;;;3.78;3.47;;;;;;;21.90;62.04;100336.59;5013084;28;20444;-43
2021/07/29 02:31:32;;;;;;;3.58;3.28;;;;;;;21.88;62.22;100337.66;5011964;28;20033;-43
2021/07/29 02:33:58;;;;;;;4.13;3.83;;;;;;;21.87;62.40;100336.78;5013612;28;20113;-43
2021/07/29 02:36:23;;;;;;;3.60;3.30;;;;;;;21.87;62.32;100342.16;5010465;28;20026;-43
2021/07/29 02:38:48;;;;;;;3.38;3.08;;;;;;;21.85;62.29;100333.34;5015527;28;20029;-43
2021/07/29 02:41:14;;;;;;;3.38;3.08;;;;;;;21.84;62.55;100336.97;5012908;28;20029;-43
2021/07/29 02:43:39;;;;;;;3.30;2.95;;;;;;;21.82;62.53;100338.91;5013670;28;20053;-43
2021/07/29 02:46:04;;;;;;;3.60;3.30;;;;;;;21.81;62.48;100345.25;5012141;28;20030;-43
2021/07/29 02:48:30;;;;;;;3.35;3.05;;;;;;;21.78;62.55;100334.69;4997687;28;20022;-43
2021/07/29 02:50:55;;;;;;;3.63;3.33;;;;;;;21.79;62.52;100339.09;5014006;28;20033;-43
2021/07/29 02:53:21;;;;;;;3.63;3.33;;;;;;;21.79;62.56;100349.81;5013002;28;20045;-43
2021/07/29 02:55:47;;;;;;;3.55;3.20;;;;;;;21.77;62.41;100336.50;5016275;28;20068;-43
2021/07/29 02:58:12;;;;;;;3.33;3.03;;;;;;;21.77;62.51;100341.00;5009999;28;20058;-43
2021/07/29 03:00:37;;;;;;;3.63;3.33;;;;;;;21.74;62.71;100341.22;4996706;28;20436;-43
2021/07/29 03:03:03;;;;;;;3.65;3.35;;;;;;;21.76;62.42;100341.97;5012266;28;20439;-43
2021/07/29 03:05:28;;;;;;;3.35;3.08;;;;;;;21.74;62.47;100342.03;4997423;28;20026;-43
2021/07/29 03:07:53;;;;;;;3.55;3.25;;;;;;;21.73;62.45;100348.34;5012816;28;20030;-43
2021/07/29 03:10:19;;;;;;;3.10;2.80;;;;;;;21.74;62.68;100346.56;5010097;28;20032;-43
2021/07/29 03:12:44;;;;;;;3.25;2.92;;;;;;;21.73;62.67;100351.03;5010329;28;20068;-43
2021/07/29 03:15:10;;;;;;;3.53;3.28;;;;;;;21.72;62.67;100343.94;5011247;28;20726;-44
2021/07/29 03:17:35;;;;;;;3.78;3.47;;;;;;;21.72;62.52;100348.44;5011918;28;20167;-43
2021/07/29 03:20:00;;;;;;;3.88;3.53;;;;;;;21.70;62.40;100353.91;5009996;28;20044;-43
2021/07/29 03:22:26;;;;;;;2.55;2.35;;;;;;;21.69;62.62;100346.81;5012437;28;20025;-43
2021/07/29 03:24:51;;;;;;;3.30;3.03;;;;;;;21.69;62.54;100360.22;4995998;28;20036;-43
2021/07/29 03:27:16;;;;;;;3.72;3.42;;;;;;;21.69;62.66;100364.72;5011953;28;20033;-43
2021/07/29 03:29:41;;;;;;;3.22;3.00;;;;;;;21.67;62.64;100357.63;5013286;28;20044;-43
2021/07/29 03:32:07;;;;;;;3.38;3.17;;;;;;;21.67;62.44;100364.81;5012554;28;20044;-43
2021/07/29 03:34:32;;;;;;;3.33;2.90;;;;;;;21.66;62.84;100361.28;5007979;28;20026;-43
2021/07/29 03:36:58;;;;;;;4.22;3.35;;;;;;;21.66;62.51;100357.72;5016544;28;20040;-44
2021/07/29 03:39:23;;;;;;;3.92;3.58;;;;;;;21.66;62.67;100363.09;5012914;28;20097;-43
2021/07/29 03:41:48;;;;;;;3.40;3.10;;;;;;;21.65;62.46;100367.59;5012576;28;20495;-43
2021/07/29 03:44:14;;;;;;;3.03;2.83;;;;;;;21.64;62.44;100362.34;5012096;28;20022;-43
2021/07/29 03:46:39;;;;;;;3.33;3.03;;;;;;;21.64;62.59;100367.72;5012089;28;20113;-43
2021/07/29 03:49:04;;;;;;;3.70;3.40;;;;;;;21.63;62.43;100369.53;5010235;28;20060;-43
2021/07/29 03:51:30;;;;;;;3.38;3.08;;;;;;;21.63;62.50;100364.16;5014832;28;20113;-43
2021/07/29 03:53:55;;;;;;;3.40;3.10;;;;;;;21.64;62.39;100378.44;5012769;28;20098;-43
2021/07/29 03:56:20;;;;;;;3.47;3.17;;;;;;;21.63;62.31;100379.38;4998290;28;20403;-43
2021/07/29 03:58:46;;;;;;;3.17;2.97;;;;;;;21.61;62.32;100373.25;5015068;28;20097;-43
2021/07/29 04:01:11;;;;;;;3.20;2.90;;;;;;;21.60;62.48;100375.06;5011648;28;20026;-43
2021/07/29 04:03:37;;;;;;;3.35;3.05;;;;;;;21.60;62.20;100375.06;5010052;28;20026;-43
2021/07/29 04:06:02;;;;;;;3.60;3.13;;;;;;;21.60;62.42;100371.50;5003234;28;20025;-43
2021/07/29 04:08:28;;;;;;;3.13;2.88;;;;;;;21.60;62.29;100372.38;5011217;28;20029;-43
2021/07/29 04:10:56;;;;;;;3.35;2.97;;;;;;;21.58;62.31;100365.38;5011529;28;20033;-43
2021/07/29 04:13:21;;;;;;;3.25;2.95;;;;;;;21.57;62.61;100366.34;5014378;28;20383;-42
2021/07/29 04:15:46;;;;;;;3.70;3.33;;;;;;;21.58;62.21;100365.38;5011831;28;20022;-43
2021/07/29 04:18:12;;;;;;;2.88;2.67;;;;;;;21.56;62.14;100365.47;5012025;28;20048;-43
2021/07/29 04:20:41;;;;;;;4.15;3.50;;;;;;;21.55;62.23;100369.13;5012731;28;20113;-43
2021/07/29 04:23:06;;;;;;;3.70;3.40;;;;;;;21.56;62.19;100362.78;5012488;28;20025;-43
2021/07/29 04:25:32;;;;;;;3.20;3.00;;;;;;;21.54;62.10;100356.66;4980799;28;20029;-43
2021/07/29 04:27:57;;;;;;;3.30;3.00;;;;;;;21.54;62.20;100356.66;4996413;28;20061;-43
2021/07/29 04:30:22;;;;;;;3.50;3.20;;;;;;;21.54;62.22;100351.28;5011453;28;20017;-43
2021/07/29 04:32:47;;;;;;;3.25;3.00;;;;;;;21.52;62.24;100353.22;5011510;28;20121;-43
2021/07/29 04:35:13;;;;;;;3.10;2.88;;;;;;;21.51;62.25;100349.66;4994478;28;20384;-42
2021/07/29 04:37:38;;;;;;;3.53;3.22;;;;;;;21.50;62.20;100345.25;5010413;28;20040;-43
2021/07/29 04:40:04;;;;;;;3.75;3.45;;;;;;;21.51;62.47;100351.50;5014306;28;20029;-43
2021/07/29 04:42:29;;;;;;;3.85;3.50;;;;;;;21.50;62.40;100344.38;4996101;28;20105;-43
2021/07/29 04:44:54;;;;;;;3.85;3.45;;;;;;;21.48;62.23;100347.16;5009182;28;20419;-43
2021/07/29 04:47:20;;;;;;;3.30;3.00;;;;;;;21.50;62.31;100355.09;5014766;28;20038;-43
2021/07/29 04:49:45;;;;;;;3.58;3.28;;;;;;;21.48;62.59;100349.00;5018706;28;20383;-43
2021/07/29 04:52:10;;;;;;;3.28;2.97;;;;;;;21.48;62.23;100349.81;5010059;28;20087;-42
2021/07/29 04:54:36;;;;;;;4.78;3.05;;;;;;;21.47;62.31;100352.63;5013539;28;20022;-43
2021/07/29 04:57:01;;;;;;;3.47;3.17;;;;;;;21.46;62.23;100351.75;5010114;28;20029;-43
2021/07/29 04:59:26;;;;;;;3.67;3.38;;;;;;;21.44;62.16;100359.03;5010427;28;20144;-43
2021/07/29 05:01:51;;;;;;;3.20;2.90;;;;;;;21.44;62.42;100360.84;5009703;28;20033;-43
2021/07/29 05:04:17;;;;;;;3.70;3.35;;;;;;;21.43;62.23;100359.09;5010745;28;20120;-43
2021/07/29 05:06:42;;;;;;;4.25;3.35;;;;;;;21.44;62.09;100368.91;5013606;28;20033;-43
2021/07/29 05:09:08;;;;;;;3.58;3.28;;;;;;;21.42;62.58;100363.63;5011080;28;20108;-43
2021/07/29 05:11:34;;;;;;;2.95;2.75;;;;;;;21.41;62.21;100368.13;5011421;28;20018;-43
2021/07/29 05:13:59;;;;;;;3.40;3.15;;;;;;;21.41;62.21;100365.44;4993733;28;20491;-43
2021/07/29 05:16:24;;;;;;;3.25;2.95;;;;;;;21.40;62.33;100357.47;5010888;28;20029;-43
2021/07/29 05:18:50;;;;;;;3.58;3.28;;;;;;;21.40;62.29;100361.03;5010987;28;20022;-43
2021/07/29 05:21:15;;;;;;;4.10;3.70;;;;;;;21.39;62.12;100353.09;5011346;28;20129;-43
2021/07/29 05:23:40;;;;;;;3.10;2.88;;;;;;;21.39;62.10;100358.44;4991809;28;20108;-43
2021/07/29 05:26:06;;;;;;;3.85;3.45;;;;;;;21.39;62.07;100347.72;5010603;28;20026;-43
2021/07/29 05:28:31;;;;;;;3.38;3.08;;;;;;;21.38;62.65;100351.38;5010548;28;20018;-43
2021/07/29 05:30:56;;;;;;;3.42;3.13;;;;;;;21.37;62.15;100350.50;5011522;28;20088;-43
2021/07/29 05:33:22;;;;;;;3.45;3.15;;;;;;;21.35;62.43;100349.72;5012922;28;20488;-43
2021/07/29 05:35:47;;;;;;;3.58;3.28;;;;;;;21.34;62.30;100353.34;5010360;28;20108;-43
2021/07/29 05:38:12;;;;;;;3.65;2.60;;;;;;;21.33;62.18;100351.63;5009176;28;20030;-43
2021/07/29 05:40:38;;;;;;;3.72;3.42;;;;;;;21.33;62.15;100343.59;5009767;28;20048;-43
2021/07/29 05:43:03;;;;;;;3.38;3.15;;;;;;;21.33;62.11;100354.31;5010282;28;20037;-43
2021/07/29 05:45:29;;;;;;;3.58;3.28;;;;;;;21.32;62.06;100357.09;5009458;28;20128;-43
2021/07/29 05:47:55;;;;;;;3.70;3.40;;;;;;;21.33;62.03;100357.00;5010361;28;20034;-43
2021/07/29 05:50:21;;;;;;;3.88;3.35;;;;;;;21.31;62.28;100358.03;5010570;28;20483;-43
2021/07/29 05:52:47;;;;;;;3.97;3.58;;;;;;;21.30;61.87;100359.84;5011514;28;20018;-43
2021/07/29 05:55:12;;;;;;;5.72;3.38;;;;;;;21.29;62.21;100363.50;5015676;28;20029;-43
2021/07/29 05:57:38;;;;;;;3.65;3.35;;;;;;;21.29;62.38;100366.19;5009696;28;20026;-43
2021/07/29 06:00:03;;;;;;;3.47;3.17;;;;;;;21.30;62.13;100370.56;5009945;28;20022;-43
2021/07/29 06:02:29;;;;;;;4.13;3.72;;;;;;;21.30;61.86;100364.38;5007744;28;20045;-43
2021/07/29 06:04:54;;;;;;;4.07;3.78;;;;;;;21.30;61.61;100359.84;5013373;28;20361;-43
2021/07/29 06:07:21;;;;;;;4.38;3.97;;;;;;;21.28;61.58;100367.16;5013461;28;20026;-43
2021/07/29 06:09:46;;;;;;;3.85;3.42;;;;;;;21.25;61.74;100370.00;5010647;28;20496;-43
2021/07/29 06:12:11;;;;;;;3.60;3.30;;;;;;;21.26;61.68;100374.41;5008047;28;20044;-43
2021/07/29 06:14:36;;;;;;;3.75;3.28;;;;;;;21.28;61.56;100361.78;5014340;28;20022;-43
2021/07/29 06:17:02;;;;;;;3.70;3.40;;;;;;;21.27;61.49;100373.44;5014145;28;20533;-43
2021/07/29 06:19:31;;;;;;;3.83;3.53;;;;;;;21.26;61.68;100369.03;5013445;28;20033;-43
2021/07/29 06:21:58;;;;;;;3.90;3.45;;;;;;;21.25;61.95;100361.97;5014020;28;20025;-43
2021/07/29 06:24:24;;;;;;;3.90;3.53;;;;;;;21.25;62.02;100368.19;5013754;28;20017;-43
2021/07/29 06:26:50;;;;;;;3.67;3.38;;;;;;;21.25;61.49;100380.72;5013128;28;20384;-43
2021/07/29 06:29:15;;;;;;;4.03;3.67;;;;;;;21.24;61.56;100373.66;5013128;28;20583;-43
2021/07/29 06:31:40;;;;;;;3.63;3.33;;;;;;;21.24;61.52;100379.00;5013770;28;20040;-43
2021/07/29 06:34:06;;;;;;;3.80;3.50;;;;;;;21.23;61.08;100375.44;5016613;28;20026;-43
2021/07/29 06:36:31;;;;;;;3.30;3.00;;;;;;;21.22;61.51;100378.22;5013013;28;20109;-43
2021/07/29 06:38:58;;;;;;;3.65;3.30;;;;;;;21.22;61.40;100384.47;5000214;28;20044;-43
2021/07/29 06:41:23;;;;;;;3.58;3.35;;;;;;;21.23;61.34;100382.63;5011284;28;20029;-43
2021/07/29 06:43:48;;;;;;;3.90;3.60;;;;;;;21.22;61.01;100378.22;5017098;28;20030;-43
2021/07/29 06:46:13;;;;;;;4.13;3.72;;;;;;;21.22;61.41;100388.94;5016677;28;20083;-43
2021/07/29 06:48:39;;;;;;;3.53;3.22;;;;;;;21.22;61.02;100388.94;5013485;28;20045;-43
2021/07/29 06:51:08;;;;;;;4.32;3.95;;;;;;;21.22;61.13;100372.84;5016956;28;20039;-43
2021/07/29 06:53:35;;;;;;;4.78;3.63;;;;;;;21.21;61.18;100387.22;5013569;28;20560;-43
2021/07/29 06:56:01;;;;;;;3.80;3.50;;;;;;;21.21;61.11;100379.19;5013167;28;20021;-43
2021/07/29 06:58:27;;;;;;;4.07;3.55;;;;;;;21.22;61.16;100379.09;5021234;28;20037;-42
2021/07/29 07:00:52;;;;;;;3.22;3.03;;;;;;;21.22;61.24;100389.81;5015986;28;20529;-42
2021/07/29 07:03:18;;;;;;;3.70;3.40;;;;;;;21.21;61.14;100381.88;5013162;28;20025;-43
2021/07/29 07:05:46;;;;;;;3.67;3.30;;;;;;;21.22;61.11;100388.94;5012611;28;20022;-43
2021/07/29 07:08:12;;;;;;;3.53;3.22;;;;;;;21.21;60.97;100385.38;5011525;28;20389;-43
2021/07/29 07:10:38;;;;;;;3.63;3.33;;;;;;;21.21;60.93;100390.75;4997014;28;20021;-43
2021/07/29 07:13:03;;;;;;;3.70;3.40;;;;;;;21.22;61.28;100394.31;5011921;28;20068;-43
2021/07/29 07:15:29;;;;;;;5.32;4.35;;;;;;;21.19;61.17;100397.16;5012681;28;20460;-43
2021/07/29 07:17:55;;;;;;;3.72;3.42;;;;;;;21.19;61.45;100397.16;5012669;28;20368;-43
2021/07/29 07:20:20;;;;;;;3.20;3.00;;;;;;;21.19;60.85;100394.47;4995069;28;20383;-43
2021/07/29 07:22:45;;;;;;;3.95;3.55;;;;;;;21.19;61.05;100389.13;5012231;28;20120;-43
2021/07/29 07:25:11;;;;;;;3.72;3.42;;;;;;;21.18;61.60;100399.00;4995223;28;20056;-43
2021/07/29 07:27:36;;;;;;;4.30;3.38;;;;;;;21.17;60.70;100391.88;5012612;28;20084;-43
2021/07/29 07:30:02;;;;;;;3.97;3.58;;;;;;;21.15;61.12;100373.22;5016982;28;20031;-43
2021/07/29 07:32:28;;;;;;;3.83;3.50;;;;;;;21.20;61.19;100390.88;5012761;28;20030;-43
2021/07/29 07:34:53;;;;;;;3.55;3.28;;;;;;;21.17;60.81;100386.53;5012466;28;20037;-43
2021/07/29 07:37:19;;;;;;;3.80;3.50;;;;;;;21.16;60.88;100379.44;5013525;28;20435;-43
2021/07/29 07:39:45;;;;;;;4.45;3.80;;;;;;;21.16;61.17;100379.44;5013252;28;20030;-43
2021/07/29 07:42:10;;;;;;;3.85;3.55;;;;;;;21.17;60.57;100385.69;5010433;28;20037;-42
2021/07/29 07:44:36;;;;;;;3.95;3.55;;;;;;;21.17;60.24;100380.31;5011443;28;20061;-43
2021/07/29 07:47:01;;;;;;;4.45;3.85;;;;;;;21.17;60.38;100374.97;4995496;28;20037;-43
2021/07/29 07:49:26;;;;;;;3.80;3.47;;;;;;;21.15;60.66;100373.22;5015359;28;20095;-43
2021/07/29 07:51:52;;;;;;;4.38;3.58;;;;;;;21.19;60.84;100370.34;5011785;28;20101;-43
2021/07/29 07:54:17;;;;;;;4.75;3.90;;;;;;;21.20;60.84;100369.41;5012205;28;20025;-43
2021/07/29 07:56:45;;;;;;;4.43;3.83;;;;;;;21.19;60.99;100365.00;5011338;28;20503;-43
2021/07/29 07:59:10;;;;;;;4.13;3.70;;;;;;;21.18;61.02;100357.91;4999934;28;20030;-43
2021/07/29 08:01:40;;;;;;;4.75;3.63;;;;;;;21.15;60.96;100365.16;5012179;28;20049;-43
2021/07/29 08:04:05;;;;;;;4.22;3.83;;;;;;;21.17;60.16;100369.59;5011635;28;20034;-43
2021/07/29 08:06:31;;;;;;;4.65;4.25;;;;;;;21.17;60.26;100362.38;5011528;28;20041;-43
2021/07/29 08:08:56;;;;;;;4.28;3.88;;;;;;;21.19;60.70;100365.00;5012060;28;20043;-43
2021/07/29 08:11:21;;;;;;;4.75;3.78;;;;;;;21.19;60.54;100356.94;5010218;28;20041;-43
2021/07/29 08:13:46;;;;;;;4.80;3.50;;;;;;;21.17;60.42;100364.22;5011783;28;20026;-43
2021/07/29 08:16:12;;;;;;;4.30;3.72;;;;;;;21.15;60.15;100361.63;5015038;28;20032;-43
2021/07/29 08:18:37;;;;;;;4.47;3.92;;;;;;;21.13;60.29;100360.84;4999163;28;20036;-43
2021/07/29 08:21:12;;;;;;;4.25;3.85;;;;;;;21.13;60.27;100352.81;5011420;28;20021;-43
2021/07/29 08:23:40;;;;;;;4.72;3.80;;;;;;;21.11;60.39;100354.72;5008521;28;20026;-42
2021/07/29 08:26:07;;;;;;;3.70;3.35;;;;;;;21.13;59.91;100347.44;5010201;28;20033;-43
2021/07/29 08:28:33;;;;;;;3.92;3.53;;;;;;;21.12;60.23;100362.69;4994405;28;20028;-43
2021/07/29 08:30:58;;;;;;;4.95;3.75;;;;;;;21.12;59.66;100357.31;5011778;28;20395;-43
2021/07/29 08:33:23;;;;;;;4.22;3.83;;;;;;;21.13;60.21;100342.97;5014477;28;20065;-43
2021/07/29 08:35:49;;;;;;;4.15;3.85;;;;;;;21.13;60.03;100345.63;5011452;28;20503;-43
2021/07/29 08:38:14;;;;;;;4.45;4.05;;;;;;;21.13;60.13;100347.44;5010649;28;20025;-43
2021/07/29 08:40:39;;;;;;;4.47;4.07;;;;;;;21.14;60.12;100343.81;5009630;28;20075;-42
2021/07/29 08:43:07;;;;;;;3.95;3.65;;;;;;;21.11;60.22;100352.06;5010853;28;20056;-43
2021/07/29 08:45:37;;;;;;;4.70;4.30;;;;;;;21.10;60.46;100356.53;5011431;28;20034;-43
2021/07/29 08:48:03;;;;;;;4.10;3.70;;;;;;;21.11;59.92;100354.72;4995124;28;20419;-43
2021/07/29 08:50:29;;;;;;;4.57;4.18;;;;;;;21.10;60.36;100359.22;5011110;28;20514;-43
2021/07/29 08:52:54;;;;;;;4.63;4.20;;;;;;;21.10;60.00;100353.84;5010877;28;20071;-43
2021/07/29 08:55:19;;;;;;;5.10;4.68;;;;;;;21.10;59.56;100353.84;5010197;28;20029;-43
2021/07/29 08:57:44;;;;;;;4.60;4.03;;;;;;;21.10;59.75;100364.59;5010983;28;20038;-42
2021/07/29 09:00:12;;;;;;;4.68;3.78;;;;;;;21.10;60.05;100358.34;5011287;28;20026;-43
2021/07/29 09:02:37;;;;;;;4.30;3.90;;;;;;;21.12;60.03;100343.91;4993168;28;20030;-43
2021/07/29 09:05:10;;;;;;;4.38;3.80;;;;;;;21.12;60.02;100346.59;5009481;28;20032;-43
2021/07/29 09:07:36;;;;;;;5.03;4.10;;;;;;;21.10;60.22;100337.78;5010685;28;20599;-43
2021/07/29 09:10:08;;;;;;;4.72;4.03;;;;;;;21.11;60.48;100344.84;5012797;28;20069;-43
2021/07/29 09:12:33;;;;;;;4.18;3.85;;;;;;;21.10;60.59;100343.13;5011377;28;20025;-43
2021/07/29 09:14:58;;;;;;;3.60;3.30;;;;;;;21.11;60.23;100334.13;5011024;28;20021;-43
2021/07/29 09:17:24;;;;;;;4.88;4.32;;;;;;;21.12;60.05;100346.59;5011382;28;20038;-43
2021/07/29 09:19:53;;;;;;;4.40;4.07;;;;;;;21.11;59.85;100354.72;5010937;28;20455;-42
2021/07/29 09:22:23;;;;;;;4.57;4.10;;;;;;;21.10;58.90;100351.19;5009041;28;20067;-43
2021/07/29 09:25:01;;;;;;;4.90;4.30;;;;;;;21.11;58.84;100334.13;5012117;28;20028;-43
2021/07/29 09:27:38;;;;;;;4.38;4.00;;;;;;;21.11;58.68;100339.50;5014087;28;20022;-43
2021/07/29 09:30:33;;;;;;;5.72;3.90;;;;;;;21.14;58.33;100346.50;4993943;28;20499;-42
2021/07/29 09:33:11;;;;;;;5.30;4.43;;;;;;;21.13;58.32;100342.09;4992782;28;20038;-43
2021/07/29 09:35:52;;;;;;;4.53;3.90;;;;;;;21.11;58.76;100339.50;5010206;28;20567;-43
2021/07/29 09:38:31;;;;;;;4.55;4.20;;;;;;;21.12;57.96;100346.59;5010719;28;20022;-43
2021/07/29 09:40:59;;;;;;;4.38;3.97;;;;;;;21.11;58.18;100338.66;5008952;28;20168;-43
2021/07/29 09:43:54;;;;;;;4.50;4.07;;;;;;;21.10;57.78;100351.19;4978261;28;20018;-43
2021/07/29 09:46:20;;;;;;;5.15;4.10;;;;;;;21.11;56.94;100342.16;4991199;28;20034;-43
2021/07/29 09:48:46;;;;;;;4.47;3.92;;;;;;;21.10;56.89;100340.44;5013453;28;20026;-43
2021/07/29 09:51:12;;;;;;;4.93;4.43;;;;;;;21.12;56.89;100341.25;5014342;28;20022;-43
2021/07/29 09:53:38;;;;;;;4.38;3.80;;;;;;;21.12;57.52;100341.25;5017153;28;20538;-43
2021/07/29 09:56:13;;;;;;;4.70;4.30;;;;;;;21.10;58.31;100343.13;5014527;28;20028;-43
2021/07/29 09:58:40;;;;;;;4.32;4.00;;;;;;;21.07;58.18;100351.34;5012097;28;20559;-43
2021/07/29 10:01:06;;;;;;;4.68;3.88;;;;;;;21.09;57.14;100359.31;5014459;28;20075;-43
2021/07/29 10:03:34;;;;;;;5.75;4.50;;;;;;;21.10;57.19;100363.72;5013659;28;20447;-43
2021/07/29 10:06:04;;;;;;;5.20;4.65;;;;;;;21.10;56.69;100361.91;5014179;28;20391;-43
2021/07/29 10:08:32;;;;;;;4.72;4.00;;;;;;;21.10;55.97;100375.31;4998771;28;20017;-43
2021/07/29 10:10:58;;;;;;;4.70;4.25;;;;;;;21.10;56.35;100377.97;4998167;28;20018;-42
2021/07/29 10:13:35;;;;;;;5.00;4.50;;;;;;;21.06;55.67;100384.47;5016305;28;20026;-43
2021/07/29 10:16:00;;;;;;;5.03;4.25;;;;;;;21.07;55.60;100386.19;5012067;28;20056;-43
2021/07/29 10:18:26;;;;;;;6.30;4.57;;;;;;;21.11;55.56;100381.53;5018823;28;20399;-43
2021/07/29 10:21:29;;;;;;;4.45;4.05;;;;;;;21.11;56.48;100387.75;5014160;28;20021;-43
2021/07/29 10:24:05;;;;;;;4.60;4.20;;;;;;;21.10;55.71;100377.97;5014073;28;20388;-42
2021/07/29 10:26:32;;;;;;;4.82;4.43;;;;;;;21.08;56.00;100371.88;5011152;28;20033;-43
2021/07/29 10:29:19;;;;;;;4.80;4.40;;;;;;;21.14;56.91;100366.13;5012292;28;20026;-43
2021/07/29 10:31:49;;;;;;;6.53;4.35;;;;;;;21.09;56.98;100356.63;5011491;28;20026;-43
2021/07/29 10:34:41;;;;;;;4.43;4.10;;;;;;;21.10;57.67;100364.59;5013675;28;20022;-42
2021/07/29 10:37:08;;;;;;;6.00;4.55;;;;;;;21.09;57.24;100357.50;5008710;28;20025;-42
2021/07/29 10:39:58;;;;;;;5.28;4.50;;;;;;;21.11;57.60;100344.00;5014077;28;20026;-43
2021/07/29 10:42:25;;;;;;;5.32;4.82;;;;;;;21.09;57.69;100343.22;5013474;28;20530;-43
2021/07/29 10:44:51;;;;;;;5.20;4.70;;;;;;;21.08;57.54;100355.78;5014164;28;20507;-43
2021/07/29 10:47:36;;;;;;;5.18;4.65;;;;;;;21.08;57.52;100345.06;5015495;28;20029;-43
2021/07/29 10:50:01;;;;;;;5.00;4.47;;;;;;;21.07;57.51;100347.81;5012036;28;20032;-43
2021/07/29 10:52:29;;;;;;;4.97;4.57;;;;;;;21.08;57.99;100357.59;5012818;28;20388;-43
2021/07/29 10:54:54;;;;;;;4.63;4.22;;;;;;;21.08;57.48;100361.13;4998523;28;20504;-43
2021/07/29 10:57:20;;;;;;;4.95;4.55;;;;;;;21.09;57.59;100362.84;4997529;28;20091;-43
2021/07/29 10:59:45;;;;;;;5.00;4.47;;;;;;;21.09;57.09;100353.94;5012852;28;20029;-43
2021/07/29 11:02:16;;;;;;;5.88;4.38;;;;;;;21.07;57.00;100351.34;5013628;28;20049;-43
2021/07/29 11:04:53;;;;;;;4.95;4.55;;;;;;;21.11;57.08;100344.00;5007999;28;20029;-43
2021/07/29 11:07:19;;;;;;;4.68;4.28;;;;;;;21.09;57.16;100340.53;4993904;28;20037;-43
2021/07/29 11:09:45;;;;;;;4.88;4.38;;;;;;;21.11;58.02;100339.50;5009686;28;20027;-42
2021/07/29 11:12:16;;;;;;;4.38;3.97;;;;;;;21.10;56.93;100337.78;5012985;28;20101;-42
2021/07/29 11:14:41;;;;;;;;;;;;;;;21.10;56.98;100343.13;5012396;28;20014;-43
2021/07/29 11:17:07;;;;;;;4.80;4.32;;;;;;;21.07;57.03;100327.22;5002013;28;20322;-42
2021/07/29 11:19:43;;;;;;;4.40;4.00;;;;;;;21.08;57.16;100334.34;5001282;28;20049;-43
2021/07/29 11:22:08;;;;;;;4.03;3.72;;;;;;;21.07;56.94;100337.94;5010885;28;20030;-43
2021/07/29 11:24:35;;;;;;;5.75;4.18;;;;;;;21.07;56.96;100335.25;5012687;28;20041;-43
2021/07/29 11:27:03;;;;;;;5.57;5.07;;;;;;;21.09;56.40;100329.81;5011027;28;20030;-42